createdAt,value
2022-07-29T00:02:27.755Z,22.69
2022-07-29T00:04:54.894Z,22.68
2022-07-29T00:07:21.902Z,22.65
2022-07-29T00:09:51.361Z,22.63
2022-07-29T00:12:26.136Z,22.54
2022-07-29T00:14:57.932Z,22.44
2022-07-29T00:17:25.480Z,22.41
2022-07-29T00:19:52.979Z,22.40
2022-07-29T00:22:20.612Z,22.17
2022-07-29T00:24:50.562Z,22.18
2022-07-29T00:27:18.199Z,22.16
2022-07-29T00:29:45.153Z,22.16
2022-07-29T00:32:12.144Z,22.15
2022-07-29T00:34:57.398Z,22.20
2022-07-29T00:37:24.573Z,22.13
2022-07-29T00:39:51.521Z,22.16
2022-07-29T00:42:18.719Z,22.15
2022-07-29T00:44:45.618Z,22.13
2022-07-29T00:47:13.391Z,22.14
2022-07-29T00:49:42.210Z,22.14
2022-07-29T00:52:10.589Z,22.10
2022-07-29T00:54:44.815Z,22.09
2022-07-29T00:57:12.932Z,22.14
2022-07-29T00:59:41.543Z,22.12
2022-07-29T01:02:08.546Z,22.13
2022-07-29T01:04:35.655Z,22.07
2022-07-29T01:07:03.993Z,22.01
2022-07-29T01:09:46.342Z,22.00
2022-07-29T01:12:25.392Z,22.03
2022-07-29T01:14:54.541Z,21.95
2022-07-29T01:17:29.800Z,22.03
2022-07-29T01:20:13.721Z,22.02
2022-07-29T01:23:08.200Z,21.94
2022-07-29T01:25:59.537Z,21.90
2022-07-29T01:28:54.033Z,21.91
2022-07-29T01:31:56.592Z,21.81
2022-07-29T01:34:49.627Z,21.79
2022-07-29T01:37:20.483Z,21.81
2022-07-29T01:39:50.340Z,21.74
2022-07-29T01:42:37.871Z,21.71
2022-07-29T01:45:15.468Z,21.72
2022-07-29T01:48:01.366Z,21.63
2022-07-29T01:50:35.282Z,21.62
2022-07-29T01:53:05.675Z,21.61
2022-07-29T01:55:37.605Z,21.58
2022-07-29T01:58:07.068Z,21.52
2022-07-29T02:00:35.719Z,21.52
2022-07-29T02:03:08.507Z,21.46
2022-07-29T02:05:37.213Z,21.31
2022-07-29T02:08:06.193Z,21.30
2022-07-29T02:10:35.988Z,21.27
2022-07-29T02:13:04.381Z,21.24
2022-07-29T02:15:34.105Z,21.14
2022-07-29T02:18:09.359Z,21.06
2022-07-29T02:20:38.861Z,21.00
2022-07-29T02:23:07.163Z,21.03
2022-07-29T02:25:38.186Z,20.93
2022-07-29T02:28:08.645Z,20.90
2022-07-29T02:30:42.983Z,20.94
2022-07-29T02:33:13.614Z,20.95
2022-07-29T02:35:42.882Z,20.97
2022-07-29T02:38:34.303Z,20.88
2022-07-29T02:41:21.016Z,20.78
2022-07-29T02:43:56.229Z,20.75
2022-07-29T02:46:31.754Z,20.73
2022-07-29T02:49:18.337Z,20.72
2022-07-29T02:51:55.004Z,20.73
2022-07-29T02:54:38.715Z,20.68
2022-07-29T02:57:54.345Z,20.60
2022-07-29T03:00:24.885Z,20.57
2022-07-29T03:02:55.814Z,20.56
2022-07-29T03:05:23.853Z,20.61
2022-07-29T03:07:56.605Z,20.54
2022-07-29T03:10:24.481Z,20.48
2022-07-29T03:12:51.687Z,20.52
2022-07-29T03:15:19.946Z,20.50
2022-07-29T03:17:47.505Z,20.48
2022-07-29T03:20:14.978Z,20.41
2022-07-29T03:22:48.143Z,20.36
2022-07-29T03:25:17.275Z,20.35
2022-07-29T03:27:44.661Z,20.38
2022-07-29T03:30:18.442Z,20.33
2022-07-29T03:32:49.664Z,20.23
2022-07-29T03:35:23.644Z,20.29
2022-07-29T03:37:50.800Z,20.27
2022-07-29T03:40:27.082Z,20.32
2022-07-29T03:42:55.978Z,20.27
2022-07-29T03:45:24.136Z,20.20
2022-07-29T03:48:00.622Z,20.26
2022-07-29T03:50:29.952Z,20.29
2022-07-29T03:52:57.294Z,20.30
2022-07-29T03:55:24.660Z,20.36
2022-07-29T03:57:52.152Z,20.39
2022-07-29T04:00:20.602Z,20.39
2022-07-29T04:02:49.729Z,20.45
2022-07-29T04:05:17.767Z,20.49
2022-07-29T04:07:48.954Z,20.52
2022-07-29T04:10:16.825Z,20.55
2022-07-29T04:12:44.226Z,20.57
2022-07-29T04:15:12.171Z,20.64
2022-07-29T04:17:39.708Z,20.69
2022-07-29T04:20:07.135Z,20.76
2022-07-29T04:22:35.212Z,20.76
2022-07-29T04:25:04.263Z,20.76
2022-07-29T04:27:31.631Z,20.88
2022-07-29T04:29:58.712Z,20.96
2022-07-29T04:32:26.856Z,21.01
2022-07-29T04:34:53.762Z,21.08
2022-07-29T04:37:20.742Z,21.09
2022-07-29T04:39:47.615Z,21.22
2022-07-29T04:42:14.561Z,21.26
2022-07-29T04:44:42.905Z,21.34
2022-07-29T04:47:10.390Z,21.33
2022-07-29T04:49:40.594Z,21.36
2022-07-29T04:52:07.801Z,21.40
2022-07-29T04:54:34.681Z,21.45
2022-07-29T04:57:01.667Z,21.53
2022-07-29T04:59:28.808Z,21.57
2022-07-29T05:01:55.805Z,21.55
2022-07-29T05:04:22.782Z,21.55
2022-07-29T05:06:50.396Z,21.66
2022-07-29T05:09:17.275Z,21.75
2022-07-29T05:11:44.186Z,21.74
2022-07-29T05:14:11.138Z,21.84
2022-07-29T05:16:38.118Z,21.88
2022-07-29T05:19:05.013Z,22.02
2022-07-29T05:21:31.883Z,22.06
2022-07-29T05:23:58.784Z,22.03
2022-07-29T05:26:25.650Z,22.09
2022-07-29T05:28:52.540Z,22.09
2022-07-29T05:31:19.577Z,22.13
2022-07-29T05:33:46.753Z,22.16
2022-07-29T05:36:13.725Z,22.20
2022-07-29T05:38:40.632Z,22.30
2022-07-29T05:41:07.830Z,22.40
2022-07-29T05:43:34.671Z,22.49
2022-07-29T05:46:01.877Z,22.52
2022-07-29T05:48:29.058Z,22.45
2022-07-29T05:50:56.126Z,22.56
2022-07-29T05:53:23.459Z,22.65
2022-07-29T05:55:51.262Z,22.71
2022-07-29T05:58:18.648Z,22.78
2022-07-29T06:00:45.576Z,22.86
2022-07-29T06:03:12.809Z,22.92
2022-07-29T06:05:39.693Z,23.01
2022-07-29T06:08:09.558Z,23.10
2022-07-29T06:10:37.117Z,23.11
2022-07-29T06:13:04.261Z,23.17
2022-07-29T06:15:31.496Z,23.18
2022-07-29T06:17:59.840Z,23.30
2022-07-29T06:20:32.901Z,23.37
2022-07-29T06:23:00.623Z,23.49
2022-07-29T06:25:30.352Z,23.59
2022-07-29T06:27:58.543Z,23.70
2022-07-29T06:30:25.509Z,23.80
2022-07-29T06:32:52.813Z,23.88
2022-07-29T06:35:39.193Z,24.00
2022-07-29T06:38:14.919Z,24.18
2022-07-29T06:41:07.063Z,24.28
2022-07-29T06:43:52.341Z,24.42
2022-07-29T06:46:22.468Z,24.57
2022-07-29T06:48:49.921Z,24.70
2022-07-29T06:51:22.250Z,24.79
2022-07-29T06:54:00.004Z,25.01
2022-07-29T06:56:38.927Z,25.22
2022-07-29T06:59:12.133Z,25.33
2022-07-29T07:01:41.968Z,25.52
2022-07-29T07:04:10.164Z,25.80
2022-07-29T07:06:37.245Z,25.99
2022-07-29T07:09:04.405Z,26.06
2022-07-29T07:11:31.672Z,25.95
2022-07-29T07:14:02.997Z,26.02
2022-07-29T07:16:30.340Z,26.21
2022-07-29T07:18:57.270Z,26.34
2022-07-29T07:21:24.200Z,26.47
2022-07-29T07:23:51.220Z,26.65
2022-07-29T07:26:18.229Z,26.75
2022-07-29T07:28:45.192Z,26.67
2022-07-29T07:31:13.231Z,26.49
2022-07-29T07:33:40.970Z,26.46
2022-07-29T07:36:07.974Z,26.39
2022-07-29T07:38:35.079Z,26.65
2022-07-29T07:41:02.347Z,26.92
2022-07-29T07:43:29.320Z,27.11
2022-07-29T07:45:56.300Z,27.26
2022-07-29T07:48:23.220Z,27.36
2022-07-29T07:50:50.521Z,27.31
2022-07-29T07:53:17.653Z,27.33
2022-07-29T07:56:09.272Z,27.48
2022-07-29T07:58:32.000Z,27.61
2022-07-29T08:00:59.035Z,27.58
2022-07-29T08:03:25.925Z,27.70
2022-07-29T08:05:52.998Z,28.01
2022-07-29T08:08:20.064Z,28.05
2022-07-29T08:10:53.288Z,28.16
2022-07-29T08:13:26.453Z,28.26
2022-07-29T08:16:00.866Z,28.46
2022-07-29T08:18:30.164Z,28.69
2022-07-29T08:20:57.845Z,28.37
2022-07-29T08:23:25.248Z,28.72
2022-07-29T08:25:52.376Z,28.48
2022-07-29T08:28:25.883Z,28.55
2022-07-29T08:30:53.314Z,28.75
2022-07-29T08:33:20.239Z,28.95
2022-07-29T08:35:47.260Z,29.17
2022-07-29T08:38:14.342Z,29.29
2022-07-29T08:40:41.210Z,29.73
2022-07-29T08:43:09.644Z,30.04
2022-07-29T08:45:48.603Z,29.99
2022-07-29T08:48:25.817Z,30.10
2022-07-29T08:50:57.558Z,30.58
2022-07-29T08:53:27.814Z,30.62
2022-07-29T08:55:55.806Z,30.97
2022-07-29T08:58:25.245Z,31.37
2022-07-29T09:00:55.778Z,32.05
2022-07-29T09:03:30.827Z,32.67
2022-07-29T09:05:59.627Z,32.24
2022-07-29T09:08:27.216Z,32.66
2022-07-29T09:10:54.857Z,33.77
2022-07-29T09:13:22.034Z,34.41
2022-07-29T09:15:49.043Z,34.67
2022-07-29T09:18:34.272Z,35.24
2022-07-29T09:21:20.140Z,35.70
2022-07-29T09:24:06.563Z,36.15
2022-07-29T09:26:44.538Z,34.95
2022-07-29T09:29:14.468Z,35.68
2022-07-29T09:31:46.667Z,35.61
2022-07-29T09:34:15.823Z,35.86
2022-07-29T09:36:48.693Z,36.73
2022-07-29T09:39:27.154Z,36.87
2022-07-29T09:41:56.895Z,37.23
2022-07-29T09:44:24.574Z,37.93
2022-07-29T09:47:08.196Z,37.87
2022-07-29T09:49:36.654Z,38.24
2022-07-29T09:52:09.364Z,37.23
2022-07-29T09:54:40.302Z,37.48
2022-07-29T09:57:10.822Z,37.01
2022-07-29T09:59:50.007Z,37.99
2022-07-29T10:02:23.533Z,39.06
2022-07-29T10:04:50.900Z,39.25
2022-07-29T10:07:17.769Z,39.16
2022-07-29T10:09:57.443Z,38.83
2022-07-29T10:12:25.284Z,39.43
2022-07-29T10:14:52.565Z,39.67
2022-07-29T10:17:20.514Z,38.67
2022-07-29T10:19:49.925Z,38.67
2022-07-29T10:22:43.375Z,39.11
2022-07-29T10:25:04.728Z,39.49
2022-07-29T10:27:32.968Z,39.86
2022-07-29T10:29:59.937Z,39.53
2022-07-29T10:32:57.612Z,39.04
2022-07-29T10:35:35.479Z,38.83
2022-07-29T10:38:22.841Z,38.36
2022-07-29T10:41:44.058Z,36.79
2022-07-29T10:44:23.168Z,36.13
2022-07-29T10:46:52.785Z,35.01
2022-07-29T10:49:31.268Z,34.58
2022-07-29T10:52:00.236Z,34.75
2022-07-29T10:54:36.854Z,35.67
2022-07-29T10:57:53.803Z,36.18
2022-07-29T11:00:16.727Z,36.04
2022-07-29T11:02:52.949Z,35.24
2022-07-29T11:05:21.775Z,35.09
2022-07-29T11:08:19.935Z,34.52
2022-07-29T11:10:49.908Z,34.60
2022-07-29T11:13:44.364Z,36.99
2022-07-29T11:16:11.449Z,37.60
2022-07-29T11:19:14.093Z,38.10
2022-07-29T11:22:05.306Z,36.90
2022-07-29T11:30:13.042Z,35.94
2022-07-29T11:32:48.632Z,36.14
2022-07-29T11:35:36.973Z,34.94
2022-07-29T11:38:28.573Z,34.51
2022-07-29T11:41:27.777Z,35.86
2022-07-29T11:43:58.421Z,36.98
2022-07-29T11:46:46.808Z,39.01
2022-07-29T11:49:15.488Z,39.71
2022-07-29T11:51:48.364Z,40.86
2022-07-29T11:54:27.475Z,40.85
2022-07-29T11:56:55.038Z,38.24
2022-07-29T11:59:22.431Z,37.06
2022-07-29T12:02:18.503Z,38.35
2022-07-29T12:04:51.163Z,40.10
2022-07-29T12:07:01.334Z,35.76
2022-07-29T12:07:03.797Z,36.31
2022-07-29T12:07:18.617Z,40.19
2022-07-29T12:09:52.871Z,40.06
2022-07-29T12:12:24.624Z,41.20
2022-07-29T12:14:52.018Z,39.84
2022-07-29T12:17:33.397Z,38.60
2022-07-29T12:20:03.880Z,38.41
2022-07-29T12:22:41.468Z,39.76
2022-07-29T12:25:32.307Z,41.34
2022-07-29T12:28:03.635Z,40.59
2022-07-29T12:30:40.009Z,37.50
2022-07-29T12:33:29.414Z,36.77
2022-07-29T12:36:06.942Z,36.43
2022-07-29T12:38:41.292Z,36.55
2022-07-29T12:41:09.555Z,36.42
2022-07-29T12:43:36.610Z,36.32
2022-07-29T12:46:15.080Z,36.38
2022-07-29T12:48:43.873Z,39.07
2022-07-29T12:51:15.325Z,38.64
2022-07-29T12:53:42.541Z,38.15
2022-07-29T12:59:18.705Z,40.34
2022-07-29T13:01:49.012Z,41.86
2022-07-29T13:04:30.998Z,42.64
2022-07-29T13:07:09.242Z,43.64
2022-07-29T13:09:49.517Z,42.66
2022-07-29T13:12:16.574Z,43.31
2022-07-29T13:14:48.144Z,44.20
2022-07-29T13:17:28.412Z,42.46
2022-07-29T13:20:13.698Z,41.39
2022-07-29T13:22:42.197Z,39.85
2022-07-29T13:25:10.736Z,40.74
2022-07-29T13:27:40.604Z,41.93
2022-07-29T13:30:09.639Z,41.96
2022-07-29T13:32:37.406Z,41.98
2022-07-29T13:35:07.547Z,40.94
2022-07-29T13:37:36.121Z,41.96
2022-07-29T13:40:04.309Z,41.38
2022-07-29T13:42:32.784Z,41.87
2022-07-29T13:45:00.358Z,40.06
2022-07-29T13:47:32.185Z,40.78
2022-07-29T13:50:01.903Z,41.50
2022-07-29T13:52:29.495Z,41.02
2022-07-29T13:54:57.415Z,40.61
2022-07-29T13:57:24.399Z,41.53
2022-07-29T13:59:54.491Z,40.77
2022-07-29T14:02:25.742Z,40.09
2022-07-29T14:04:54.568Z,40.09
2022-07-29T14:07:22.372Z,40.04
2022-07-29T14:09:49.320Z,41.04
2022-07-29T14:12:16.339Z,40.92
2022-07-29T14:14:43.317Z,41.48
2022-07-29T14:17:12.717Z,41.04
2022-07-29T14:19:40.198Z,39.62
2022-07-29T14:22:08.959Z,40.93
2022-07-29T14:24:37.246Z,40.72
2022-07-29T14:27:09.009Z,40.86
2022-07-29T14:29:38.638Z,40.74
2022-07-29T14:32:11.511Z,42.49
2022-07-29T14:34:39.342Z,41.26
2022-07-29T14:37:07.212Z,41.69
2022-07-29T14:39:38.184Z,42.21
2022-07-29T14:42:10.087Z,42.90
2022-07-29T14:44:39.624Z,43.75
2022-07-29T14:47:07.571Z,43.66
2022-07-29T14:49:35.357Z,43.01
2022-07-29T14:52:02.205Z,42.58
2022-07-29T14:54:29.055Z,41.66
2022-07-29T14:56:58.337Z,40.37
2022-07-29T14:59:26.169Z,40.77
2022-07-29T15:01:53.312Z,41.05
2022-07-29T15:04:20.444Z,40.69
2022-07-29T15:06:47.368Z,40.43
2022-07-29T15:09:14.633Z,40.25
2022-07-29T15:11:41.492Z,39.72
2022-07-29T15:14:08.473Z,39.41
2022-07-29T15:16:41.916Z,40.36
2022-07-29T15:19:11.666Z,38.86
2022-07-29T15:21:47.923Z,37.65
2022-07-29T15:24:15.953Z,37.87
2022-07-29T15:26:44.997Z,38.21
2022-07-29T15:29:12.192Z,37.53
2022-07-29T15:31:40.714Z,37.90
2022-07-29T15:34:08.588Z,38.18
2022-07-29T15:36:52.128Z,39.01
2022-07-29T15:39:20.585Z,39.25
2022-07-29T15:41:47.634Z,39.09
2022-07-29T15:44:14.607Z,39.37
2022-07-29T15:47:00.576Z,39.67
2022-07-29T15:49:47.403Z,38.81
2022-07-29T15:52:25.506Z,38.68
2022-07-29T15:54:55.462Z,36.86
2022-07-29T15:57:23.035Z,36.50
2022-07-29T15:59:50.454Z,36.34
2022-07-29T16:02:17.886Z,36.40
2022-07-29T16:04:44.875Z,36.21
2022-07-29T16:07:11.846Z,36.02
2022-07-29T16:09:39.060Z,35.75
2022-07-29T16:12:14.858Z,35.22
2022-07-29T16:14:43.867Z,35.27
2022-07-29T16:17:14.541Z,35.02
2022-07-29T16:19:43.648Z,34.94
2022-07-29T16:22:10.817Z,34.73
2022-07-29T16:24:39.718Z,34.75
2022-07-29T16:27:07.546Z,34.77
2022-07-29T16:29:34.909Z,34.57
2022-07-29T16:32:02.000Z,34.47
2022-07-29T16:34:29.729Z,34.39
2022-07-29T16:36:56.589Z,34.34
2022-07-29T16:39:23.591Z,34.27
2022-07-29T16:41:50.726Z,34.34
2022-07-29T16:44:17.924Z,34.17
2022-07-29T16:46:45.485Z,34.16
2022-07-29T16:49:19.244Z,34.11
2022-07-29T16:51:47.920Z,33.92
2022-07-29T16:54:15.207Z,33.82
2022-07-29T16:56:42.071Z,33.64
2022-07-29T16:59:09.006Z,33.47
2022-07-29T17:01:35.973Z,33.22
2022-07-29T17:04:06.360Z,33.15
2022-07-29T17:06:38.359Z,33.21
2022-07-29T17:09:07.706Z,33.20
2022-07-29T17:11:52.780Z,33.12
2022-07-29T17:14:26.963Z,33.09
2022-07-29T17:17:01.125Z,32.96
2022-07-29T17:19:33.991Z,32.84
2022-07-29T17:22:11.739Z,32.73
2022-07-29T17:24:42.761Z,32.64
2022-07-29T17:27:10.487Z,32.48
2022-07-29T17:29:39.155Z,32.39
2022-07-29T17:32:07.595Z,32.24
2022-07-29T17:34:42.160Z,32.22
2022-07-29T17:37:10.825Z,31.93
2022-07-29T17:39:40.894Z,31.79
2022-07-29T17:42:14.480Z,31.66
2022-07-29T17:44:41.663Z,31.47
2022-07-29T17:47:15.713Z,31.38
2022-07-29T17:49:45.102Z,31.32
2022-07-29T17:52:12.122Z,31.07
2022-07-29T17:54:39.028Z,31.04
2022-07-29T17:57:06.015Z,30.95
2022-07-29T17:59:33.010Z,31.05
2022-07-29T18:02:00.168Z,30.90
2022-07-29T18:04:28.704Z,30.79
2022-07-29T18:06:55.923Z,30.62
2022-07-29T18:09:23.063Z,30.53
2022-07-29T18:11:49.910Z,30.42
2022-07-29T18:14:17.163Z,30.34
2022-07-29T18:16:44.173Z,30.11
2022-07-29T18:19:11.245Z,29.66
2022-07-29T18:21:45.978Z,29.60
2022-07-29T18:24:19.031Z,29.55
2022-07-29T18:26:46.043Z,29.48
2022-07-29T18:29:12.971Z,29.52
2022-07-29T18:31:41.215Z,29.40
2022-07-29T18:34:08.277Z,29.48
2022-07-29T18:36:35.278Z,29.43
2022-07-29T18:39:02.272Z,29.50
2022-07-29T18:41:29.298Z,29.25
2022-07-29T18:43:56.302Z,29.19
2022-07-29T18:46:23.245Z,29.11
2022-07-29T18:48:52.914Z,29.03
2022-07-29T18:51:19.822Z,29.00
2022-07-29T18:53:46.924Z,28.89
2022-07-29T18:56:14.090Z,28.86
2022-07-29T18:58:41.010Z,28.60
2022-07-29T19:01:07.963Z,28.42
2022-07-29T19:03:34.976Z,28.56
2022-07-29T19:06:01.939Z,28.36
2022-07-29T19:08:29.141Z,28.51
2022-07-29T19:10:56.160Z,28.55
2022-07-29T19:13:23.211Z,28.42
2022-07-29T19:15:50.197Z,28.33
2022-07-29T19:18:17.561Z,28.28
2022-07-29T19:20:44.590Z,28.15
2022-07-29T19:23:11.691Z,27.99
2022-07-29T19:25:53.075Z,27.93
2022-07-29T19:28:22.072Z,27.80
2022-07-29T19:30:49.613Z,27.77
2022-07-29T19:33:17.774Z,27.39
2022-07-29T19:35:45.906Z,27.49
2022-07-29T19:38:14.621Z,27.31
2022-07-29T19:40:41.634Z,27.21
2022-07-29T19:43:49.796Z,27.21
2022-07-29T19:45:56.768Z,27.24
2022-07-29T19:48:23.704Z,27.35
2022-07-29T19:50:50.621Z,27.27
2022-07-29T19:53:17.583Z,27.16
2022-07-29T19:55:44.482Z,27.20
2022-07-29T19:58:11.380Z,27.08
2022-07-29T20:00:38.258Z,26.93
2022-07-29T20:03:07.230Z,26.78
2022-07-29T20:05:34.221Z,26.50
2022-07-29T20:08:01.190Z,26.70
2022-07-29T20:10:28.505Z,26.81
2022-07-29T20:12:55.492Z,26.85
2022-07-29T20:15:22.642Z,26.82
2022-07-29T20:17:51.854Z,26.90
2022-07-29T20:20:23.236Z,26.89
2022-07-29T20:22:50.224Z,26.89
2022-07-29T20:25:17.552Z,26.97
2022-07-29T20:27:44.864Z,26.97
2022-07-29T20:30:15.157Z,26.94
2022-07-29T20:32:42.317Z,26.92
2022-07-29T20:35:13.464Z,27.02
2022-07-29T20:37:52.356Z,26.95
2022-07-29T20:40:24.864Z,26.88
2022-07-29T20:42:52.085Z,26.82
2022-07-29T20:45:20.108Z,26.61
2022-07-29T20:47:47.129Z,26.54
2022-07-29T20:50:14.163Z,26.38
2022-07-29T20:52:41.475Z,26.39
2022-07-29T20:55:09.100Z,26.22
2022-07-29T20:57:39.017Z,26.17
2022-07-29T21:00:08.735Z,26.17
2022-07-29T21:02:36.769Z,26.08
2022-07-29T21:05:04.574Z,25.96
2022-07-29T21:07:32.016Z,25.91
2022-07-29T21:09:59.077Z,25.71
2022-07-29T21:12:26.035Z,25.65
2022-07-29T21:14:52.942Z,25.43
2022-07-29T21:17:22.621Z,25.45
2022-07-29T21:19:55.355Z,25.49
2022-07-29T21:22:22.543Z,25.42
2022-07-29T21:24:49.800Z,25.35
2022-07-29T21:27:38.388Z,25.16
2022-07-29T21:30:07.738Z,25.25
2022-07-29T21:32:35.014Z,25.28
2022-07-29T21:35:01.908Z,25.24
2022-07-29T21:37:29.050Z,25.26
2022-07-29T21:39:57.177Z,25.06
2022-07-29T21:42:24.473Z,25.06
2022-07-29T21:44:51.675Z,24.98
2022-07-29T21:47:18.699Z,24.96
2022-07-29T21:49:46.609Z,24.87
2022-07-29T21:52:14.255Z,24.95
2022-07-29T21:54:41.894Z,24.83
2022-07-29T21:57:09.507Z,24.73
2022-07-29T21:59:36.786Z,24.77
2022-07-29T22:02:03.798Z,24.77
2022-07-29T22:04:31.271Z,24.84
2022-07-29T22:06:58.954Z,24.82
2022-07-29T22:09:26.221Z,24.75
2022-07-29T22:11:54.104Z,24.75
2022-07-29T22:14:21.297Z,24.60
2022-07-29T22:16:48.569Z,24.62
2022-07-29T22:19:15.704Z,24.67
2022-07-29T22:21:42.778Z,24.68
2022-07-29T22:24:10.706Z,24.61
2022-07-29T22:26:38.383Z,24.52
2022-07-29T22:29:05.759Z,24.47
2022-07-29T22:31:32.626Z,24.53
2022-07-29T22:33:59.570Z,24.48
2022-07-29T22:36:27.021Z,24.30
2022-07-29T22:38:53.960Z,24.34
2022-07-29T22:41:20.860Z,24.28
2022-07-29T22:43:47.754Z,24.32
2022-07-29T22:46:14.753Z,24.30
2022-07-29T22:48:41.766Z,24.26
2022-07-29T22:51:08.828Z,24.15
2022-07-29T22:53:36.995Z,24.01
2022-07-29T22:56:06.536Z,23.98
2022-07-29T22:58:33.476Z,23.97
2022-07-29T23:01:00.596Z,23.99
2022-07-29T23:03:27.590Z,23.69
2022-07-29T23:05:54.555Z,23.77
2022-07-29T23:08:21.453Z,23.55
2022-07-29T23:10:48.464Z,23.74
2022-07-29T23:13:15.529Z,23.75
2022-07-29T23:15:42.545Z,23.77
2022-07-29T23:18:09.562Z,23.78
2022-07-29T23:20:36.554Z,23.77
2022-07-29T23:23:03.474Z,23.77
2022-07-29T23:25:30.512Z,23.79
2022-07-29T23:27:57.503Z,23.66
2022-07-29T23:30:24.564Z,23.61
2022-07-29T23:32:51.524Z,23.56
2022-07-29T23:35:18.683Z,23.56
2022-07-29T23:37:45.783Z,23.56
2022-07-29T23:40:14.718Z,23.47
2022-07-29T23:42:43.021Z,23.48
2022-07-29T23:45:11.279Z,23.41
2022-07-29T23:47:38.367Z,23.37
2022-07-29T23:50:07.003Z,23.36
2022-07-29T23:52:33.981Z,23.22
2022-07-29T23:55:37.465Z,23.22
2022-07-29T23:57:50.148Z,23.24
